Terminal Aerodrome Forecast
Issued by NWS

Home | Current Version | Previous Version | Text Only | Print | Product List | Glossary On
Versions: 1 2 3 4 5 6 7 8 9 10 11 12 13 14 15 16 17 18 19 20 21
313
FTUS46 KEKA 052336
TAFUKI
TAF
KUKI 052336Z 0600/0624 00000KT P6SM SKC
     FM060800 00000KT 2SM BR FEW005 BKN020
     FM061200 00000KT 1/2SM FG VV003
     FM061500 00000KT 4SM BR BKN005
     FM061800 00000KT P6SM OVC100=

USA.gov is the U.S. government's official web portal to all federal, state and local government web resources and services.